Terminal Aerodrome Forecast
Issued by NWS

Home | Current Version | Previous Version | Text Only | Print | Product List | Glossary Off
Versions: 1 2 3 4 5 6 7 8 9 10 11 12 13 14 15 16 17 18 19 20 21 22 23

762
FTUS43 KICT 260716 AAA
TAFSLN
TAF AMD
KSLN 260716Z 2607/2706 VRB03KT 4SM BR SCT004 OVC006
      TEMPO 2607/2611 2SM BR OVC004
     FM261100 VRB03KT 4SM BR SCT004 OVC006
      TEMPO 2611/2613 2SM BR OVC004
     FM261500 VRB03KT P6SM SCT009 BKN015
     FM261800 08007KT P6SM SCT020 BKN100
     FM262100 06012KT P6SM VCTS BKN035CB
     FM270100 04011KT P6SM VCSH OVC015=

USA.gov is the U.S. government's official web portal to all federal, state and local government web resources and services.